createdAt,value
2019-01-14T00:00:17.530Z,960.83
2019-01-14T00:01:17.445Z,960.87
2019-01-14T00:02:17.363Z,960.91
2019-01-14T00:03:17.272Z,960.95
2019-01-14T00:04:17.188Z,960.97
2019-01-14T00:05:17.102Z,960.98
2019-01-14T00:06:17.016Z,960.97
2019-01-14T00:07:16.930Z,960.97
2019-01-14T00:08:16.845Z,961.08
2019-01-14T00:09:23.382Z,961.11
2019-01-14T00:10:16.672Z,961.13
2019-01-14T00:11:16.589Z,961.09
2019-01-14T00:12:16.500Z,961.02
2019-01-14T00:13:16.415Z,961.10
2019-01-14T00:14:16.346Z,961.10
2019-01-14T00:15:16.271Z,961.13
2019-01-14T00:16:16.177Z,961.08
2019-01-14T00:17:16.083Z,961.11
2019-01-14T00:18:15.986Z,961.11
2019-01-14T00:19:15.898Z,961.07
2019-01-14T00:20:15.812Z,961.13
2019-01-14T00:21:15.726Z,961.08
2019-01-14T00:22:15.641Z,961.09
2019-01-14T00:23:15.554Z,961.12
2019-01-14T00:24:15.469Z,961.05
2019-01-14T00:25:15.384Z,961.08
2019-01-14T00:26:15.301Z,961.05
2019-01-14T00:27:15.212Z,961.00
2019-01-14T00:28:15.129Z,961.15
2019-01-14T00:29:15.041Z,961.05
2019-01-14T00:30:14.963Z,961.10
2019-01-14T00:31:14.868Z,961.15
2019-01-14T00:32:14.789Z,961.15
2019-01-14T00:33:14.695Z,961.18
2019-01-14T00:34:14.610Z,961.18
2019-01-14T00:35:14.524Z,961.23
2019-01-14T00:36:17.678Z,961.21
2019-01-14T00:37:14.353Z,961.21
2019-01-14T00:38:14.270Z,961.24
2019-01-14T00:39:14.179Z,961.31
2019-01-14T00:40:14.093Z,961.17
2019-01-14T00:41:14.007Z,961.24
2019-01-14T00:42:13.922Z,961.21
2019-01-14T00:43:13.838Z,961.19
2019-01-14T00:44:13.750Z,961.23
2019-01-14T00:45:13.665Z,961.17
2019-01-14T00:46:13.581Z,961.18
2019-01-14T00:47:13.492Z,961.14
2019-01-14T00:48:13.418Z,961.17
2019-01-14T00:49:13.331Z,961.12
2019-01-14T00:50:13.244Z,961.16
2019-01-14T00:51:13.149Z,961.14
2019-01-14T00:52:13.063Z,961.18
2019-01-14T00:53:12.976Z,961.19
2019-01-14T00:54:12.898Z,961.26
2019-01-14T00:55:12.805Z,961.16
2019-01-14T00:56:12.717Z,961.08
2019-01-14T00:57:12.633Z,961.13
2019-01-14T00:58:12.610Z,961.23
2019-01-14T00:59:12.482Z,961.22
2019-01-14T01:00:12.377Z,961.24
2019-01-14T01:01:12.290Z,961.17
2019-01-14T01:02:12.210Z,961.29
2019-01-14T01:03:12.117Z,961.25
2019-01-14T01:04:12.033Z,961.21
2019-01-14T01:05:11.947Z,961.18
2019-01-14T01:06:11.860Z,961.30
2019-01-14T01:07:11.775Z,961.30
2019-01-14T01:08:11.689Z,961.29
2019-01-14T01:09:11.604Z,961.24
2019-01-14T01:10:11.525Z,961.28
2019-01-14T01:11:11.434Z,961.42
2019-01-14T01:12:11.345Z,961.34
2019-01-14T01:13:11.264Z,961.33
2019-01-14T01:14:11.174Z,961.38
2019-01-14T01:15:11.088Z,961.40
2019-01-14T01:16:11.002Z,961.39
2019-01-14T01:17:10.916Z,961.38
2019-01-14T01:18:10.829Z,961.44
2019-01-14T01:19:10.743Z,961.48
2019-01-14T01:20:10.660Z,961.54
2019-01-14T01:21:10.574Z,961.47
2019-01-14T01:22:10.498Z,961.52
2019-01-14T01:23:10.399Z,961.54
2019-01-14T01:24:10.318Z,961.60
2019-01-14T01:25:10.230Z,961.68
2019-01-14T01:26:10.144Z,961.70
2019-01-14T01:27:10.056Z,961.62
2019-01-14T01:28:09.974Z,961.58
2019-01-14T01:29:09.884Z,961.63
2019-01-14T01:30:09.825Z,961.64
2019-01-14T01:31:09.713Z,961.64
2019-01-14T01:32:09.650Z,961.68
2019-01-14T01:33:09.549Z,961.77
2019-01-14T01:34:09.456Z,961.68
2019-01-14T01:35:09.378Z,961.69
2019-01-14T01:36:09.284Z,961.75
2019-01-14T01:37:09.199Z,961.76
2019-01-14T01:38:09.113Z,961.72
2019-01-14T01:39:09.026Z,961.68
2019-01-14T01:40:08.940Z,961.63
2019-01-14T01:41:08.856Z,961.69
2019-01-14T01:42:08.786Z,961.73
2019-01-14T01:43:08.683Z,961.70
2019-01-14T01:44:08.597Z,961.72
2019-01-14T01:45:08.514Z,961.67
2019-01-14T01:46:08.429Z,961.79
2019-01-14T01:47:08.339Z,961.87
2019-01-14T01:48:08.255Z,961.74
2019-01-14T01:49:08.169Z,961.71
2019-01-14T01:50:08.084Z,961.70
2019-01-14T01:51:08.008Z,961.71
2019-01-14T01:52:07.911Z,961.74
2019-01-14T01:53:07.827Z,961.74
2019-01-14T01:54:07.744Z,961.61
2019-01-14T01:55:07.653Z,961.68
2019-01-14T01:56:07.570Z,961.75
2019-01-14T01:57:07.483Z,961.78
2019-01-14T01:58:07.398Z,961.79
2019-01-14T01:59:07.310Z,961.74
2019-01-14T02:00:07.227Z,961.76
2019-01-14T02:01:07.140Z,961.75
2019-01-14T02:02:07.065Z,961.77
2019-01-14T02:03:06.971Z,961.81
2019-01-14T02:04:06.885Z,961.91
2019-01-14T02:05:06.818Z,961.82
2019-01-14T02:06:06.736Z,961.85
2019-01-14T02:07:06.633Z,961.94
2019-01-14T02:08:06.545Z,961.78
2019-01-14T02:09:06.455Z,961.80
2019-01-14T02:10:06.390Z,961.92
2019-01-14T02:11:06.282Z,961.90
2019-01-14T02:12:06.198Z,961.94
2019-01-14T02:13:06.132Z,961.91
2019-01-14T02:14:06.029Z,961.96
2019-01-14T02:15:05.941Z,962.00
2019-01-14T02:16:05.855Z,962.02
2019-01-14T02:17:05.769Z,962.10
2019-01-14T02:18:05.684Z,961.99
2019-01-14T02:19:05.599Z,962.18
2019-01-14T02:20:05.513Z,962.08
2019-01-14T02:21:05.428Z,962.08
2019-01-14T02:22:05.343Z,962.08
2019-01-14T02:23:05.266Z,962.13
2019-01-14T02:24:05.169Z,962.08
2019-01-14T02:25:05.089Z,962.09
2019-01-14T02:26:05.007Z,962.15
2019-01-14T02:27:04.913Z,962.11
2019-01-14T02:28:04.826Z,962.14
2019-01-14T02:29:04.742Z,962.19
2019-01-14T02:30:04.657Z,962.32
2019-01-14T02:31:04.570Z,962.19
2019-01-14T02:32:04.484Z,962.19
2019-01-14T02:33:04.400Z,962.20
2019-01-14T02:34:04.319Z,962.25
2019-01-14T02:35:04.237Z,962.36
2019-01-14T02:36:04.143Z,962.25
2019-01-14T02:37:04.059Z,962.23
2019-01-14T02:38:03.969Z,962.20
2019-01-14T02:39:03.882Z,962.30
2019-01-14T02:40:03.798Z,962.30
2019-01-14T02:41:03.716Z,962.30
2019-01-14T02:42:03.628Z,962.27
2019-01-14T02:43:03.544Z,962.30
2019-01-14T02:44:03.456Z,962.37
2019-01-14T02:45:03.372Z,962.33
2019-01-14T02:46:03.284Z,962.31
2019-01-14T02:47:03.198Z,962.35
2019-01-14T02:48:03.129Z,962.35
2019-01-14T02:49:03.028Z,962.32
2019-01-14T02:50:02.943Z,962.37
2019-01-14T02:51:02.857Z,962.36
2019-01-14T02:52:02.771Z,962.33
2019-01-14T02:53:02.685Z,962.37
2019-01-14T02:54:02.601Z,962.34
2019-01-14T02:55:02.513Z,962.37
2019-01-14T02:56:02.429Z,962.50
2019-01-14T02:57:02.456Z,962.34
2019-01-14T02:58:02.264Z,962.37
2019-01-14T02:59:02.170Z,962.34
2019-01-14T03:00:02.097Z,962.34
2019-01-14T03:01:02.005Z,962.43
2019-01-14T03:02:01.914Z,962.47
2019-01-14T03:03:01.827Z,962.38
2019-01-14T03:04:01.741Z,962.49
2019-01-14T03:05:01.721Z,962.49
2019-01-14T03:06:01.594Z,962.52
2019-01-14T03:07:01.485Z,962.51
2019-01-14T03:08:01.419Z,962.48
2019-01-14T03:09:01.319Z,962.51
2019-01-14T03:10:01.231Z,962.52
2019-01-14T03:11:01.143Z,962.53
2019-01-14T03:12:01.060Z,962.58
2019-01-14T03:13:00.971Z,962.54
2019-01-14T03:14:00.897Z,962.53
2019-01-14T03:15:00.808Z,962.61
2019-01-14T03:16:00.714Z,962.53
2019-01-14T03:17:00.631Z,962.58
2019-01-14T03:18:00.650Z,962.56
2019-01-14T03:19:00.459Z,962.59
2019-01-14T03:20:00.375Z,962.64
2019-01-14T03:21:00.285Z,962.60
2019-01-14T03:22:00.296Z,962.68
2019-01-14T03:23:00.113Z,962.66
2019-01-14T03:24:00.027Z,962.66
2019-01-14T03:24:59.950Z,962.69
2019-01-14T03:25:59.857Z,962.70
2019-01-14T03:26:59.777Z,962.77
2019-01-14T03:27:59.696Z,962.76
2019-01-14T03:28:59.613Z,962.84
2019-01-14T03:30:07.218Z,962.81
2019-01-14T03:32:03.867Z,962.80
2019-01-14T03:33:03.731Z,962.83
2019-01-14T03:35:08.057Z,962.85
2019-01-14T03:36:07.923Z,962.87
2019-01-14T03:38:12.215Z,962.71
2019-01-14T03:39:12.125Z,962.84
2019-01-14T03:41:05.422Z,962.88
2019-01-14T03:42:05.274Z,962.91
2019-01-14T03:44:09.570Z,962.92
2019-01-14T03:45:09.476Z,963.00
2019-01-14T03:47:13.809Z,962.92
2019-01-14T03:48:13.673Z,962.98
2019-01-14T03:50:18.031Z,963.10
2019-01-14T03:51:17.876Z,963.01
2019-01-14T03:53:22.155Z,963.04
2019-01-14T03:54:22.064Z,963.03
2019-01-14T03:56:26.402Z,962.99
2019-01-14T03:57:26.263Z,963.14
2019-01-14T03:58:26.176Z,963.10
2019-01-14T03:59:26.091Z,963.11
2019-01-14T04:00:26.011Z,963.09
2019-01-14T04:01:25.921Z,963.07
2019-01-14T04:02:25.835Z,963.13
2019-01-14T04:03:25.749Z,963.12
2019-01-14T04:04:25.663Z,963.17
2019-01-14T04:05:25.577Z,963.26
2019-01-14T04:06:25.492Z,963.15
2019-01-14T04:07:25.407Z,963.18
2019-01-14T04:08:25.320Z,963.14
2019-01-14T04:09:25.233Z,963.13
2019-01-14T04:10:25.156Z,963.19
2019-01-14T04:11:25.063Z,963.18
2019-01-14T04:12:24.976Z,963.20
2019-01-14T04:13:24.894Z,963.22
2019-01-14T04:14:24.815Z,963.22
2019-01-14T04:15:24.719Z,963.19
2019-01-14T04:16:24.634Z,963.21
2019-01-14T04:17:24.547Z,963.27
2019-01-14T04:18:24.462Z,963.29
2019-01-14T04:19:24.375Z,963.42
2019-01-14T04:20:24.289Z,963.35
2019-01-14T04:21:24.202Z,963.38
2019-01-14T04:22:24.117Z,963.38
2019-01-14T04:23:24.033Z,963.42
2019-01-14T04:24:23.947Z,963.44
2019-01-14T04:25:23.864Z,963.46
2019-01-14T04:26:23.775Z,963.48
2019-01-14T04:27:23.690Z,963.43
2019-01-14T04:28:23.601Z,963.48
2019-01-14T04:29:23.515Z,963.53
2019-01-14T04:30:23.436Z,963.52
2019-01-14T04:31:23.346Z,963.56
2019-01-14T04:32:23.259Z,963.57
2019-01-14T04:33:23.173Z,963.60
2019-01-14T04:34:23.094Z,963.64
2019-01-14T04:35:23.003Z,963.72
2019-01-14T04:36:22.919Z,963.73
2019-01-14T04:37:22.833Z,963.78
2019-01-14T04:38:22.745Z,963.84
2019-01-14T04:39:22.659Z,963.91
2019-01-14T04:40:22.573Z,963.84
2019-01-14T04:41:22.489Z,963.83
2019-01-14T04:42:22.400Z,963.83
2019-01-14T04:43:22.314Z,963.89
2019-01-14T04:44:22.234Z,963.85
2019-01-14T04:45:22.143Z,963.96
2019-01-14T04:46:22.059Z,963.98
2019-01-14T04:47:21.985Z,963.97
2019-01-14T04:48:21.890Z,963.88
2019-01-14T04:49:21.800Z,963.98
2019-01-14T04:50:21.716Z,963.99
2019-01-14T04:51:21.629Z,963.96
2019-01-14T04:52:21.552Z,963.91
2019-01-14T04:53:21.457Z,963.97
2019-01-14T04:54:21.374Z,963.99
2019-01-14T04:55:21.291Z,964.09
2019-01-14T04:56:21.201Z,964.09
2019-01-14T04:57:21.115Z,964.09
2019-01-14T04:58:21.030Z,964.12
2019-01-14T04:59:20.942Z,964.20
2019-01-14T05:00:20.857Z,964.11
2019-01-14T05:01:20.771Z,964.18
2019-01-14T05:02:20.686Z,964.32
2019-01-14T05:03:20.601Z,964.24
2019-01-14T05:04:20.514Z,964.34
2019-01-14T05:05:20.431Z,964.22
2019-01-14T05:06:20.347Z,964.30
2019-01-14T05:07:20.260Z,964.29
2019-01-14T05:08:20.182Z,964.31
2019-01-14T05:09:20.089Z,964.31
2019-01-14T05:10:19.999Z,964.25
2019-01-14T05:11:19.915Z,964.30
2019-01-14T05:12:19.828Z,964.34
2019-01-14T05:13:19.748Z,964.37
2019-01-14T05:14:19.657Z,964.38
2019-01-14T05:15:19.571Z,964.46
2019-01-14T05:16:19.489Z,964.50
2019-01-14T05:17:19.401Z,964.64
2019-01-14T05:18:19.314Z,964.50
2019-01-14T05:19:19.230Z,964.67
2019-01-14T05:20:19.147Z,964.57
2019-01-14T05:21:19.058Z,964.62
2019-01-14T05:22:18.970Z,964.66
2019-01-14T05:23:18.885Z,964.70
2019-01-14T05:24:18.800Z,964.68
2019-01-14T05:25:18.714Z,964.74
2019-01-14T05:26:18.629Z,964.74
2019-01-14T05:27:18.543Z,964.77
2019-01-14T05:28:18.459Z,964.85
2019-01-14T05:29:18.369Z,964.89
2019-01-14T05:30:18.289Z,964.90
2019-01-14T05:31:18.201Z,964.86
2019-01-14T05:32:18.113Z,964.83
2019-01-14T05:33:18.029Z,964.86
2019-01-14T05:34:17.946Z,964.86
2019-01-14T05:35:17.864Z,964.85
2019-01-14T05:36:17.772Z,964.86
2019-01-14T05:37:17.685Z,964.91
2019-01-14T05:38:17.601Z,964.89
2019-01-14T05:39:17.515Z,964.86
2019-01-14T05:40:17.428Z,964.88
2019-01-14T05:41:17.349Z,964.92
2019-01-14T05:42:17.265Z,965.00
2019-01-14T05:43:17.171Z,964.96
2019-01-14T05:44:17.087Z,964.96
2019-01-14T05:45:16.999Z,964.98
2019-01-14T05:46:16.915Z,964.95
2019-01-14T05:47:16.829Z,965.06
2019-01-14T05:48:16.742Z,964.98
2019-01-14T05:49:16.661Z,965.10
2019-01-14T05:50:16.571Z,965.09
2019-01-14T05:51:16.487Z,965.02
2019-01-14T05:52:16.402Z,965.05
2019-01-14T05:53:16.315Z,965.14
2019-01-14T05:54:16.226Z,965.08
2019-01-14T05:55:16.142Z,965.16
2019-01-14T05:56:16.057Z,965.22
2019-01-14T05:57:15.970Z,965.24
2019-01-14T05:58:15.883Z,965.19
2019-01-14T05:59:15.798Z,965.22
2019-01-14T06:00:15.716Z,965.18
2019-01-14T06:01:15.628Z,965.33
2019-01-14T06:02:15.560Z,965.20
2019-01-14T06:03:15.457Z,965.27
2019-01-14T06:04:15.371Z,965.34
2019-01-14T06:05:15.288Z,965.34
2019-01-14T06:06:15.202Z,965.29
2019-01-14T06:07:15.115Z,965.29
2019-01-14T06:08:15.028Z,965.31
2019-01-14T06:09:14.941Z,965.37
2019-01-14T06:10:14.855Z,965.39
2019-01-14T06:11:14.772Z,965.39
2019-01-14T06:12:14.688Z,965.37
2019-01-14T06:13:14.597Z,965.43
2019-01-14T06:14:14.513Z,965.42
2019-01-14T06:15:14.428Z,965.45
2019-01-14T06:16:14.340Z,965.49
2019-01-14T06:17:14.254Z,965.44
2019-01-14T06:18:14.167Z,965.45
2019-01-14T06:19:14.082Z,965.52
2019-01-14T06:20:13.998Z,965.53
2019-01-14T06:21:13.910Z,965.58
2019-01-14T06:22:13.824Z,965.59
2019-01-14T06:23:13.738Z,965.64
2019-01-14T06:24:13.655Z,965.61
2019-01-14T06:25:13.567Z,965.64
2019-01-14T06:26:13.479Z,965.62
2019-01-14T06:27:13.392Z,965.71
2019-01-14T06:28:13.309Z,965.70
2019-01-14T06:29:13.222Z,965.71
2019-01-14T06:30:13.137Z,965.67
2019-01-14T06:31:13.048Z,965.71
2019-01-14T06:32:12.965Z,965.75
2019-01-14T06:33:12.879Z,965.73
2019-01-14T06:34:12.790Z,965.79
2019-01-14T06:35:12.709Z,965.77
2019-01-14T06:36:12.708Z,965.81
2019-01-14T06:37:12.531Z,965.86
2019-01-14T06:38:12.446Z,965.83
2019-01-14T06:39:12.360Z,965.85
2019-01-14T06:40:12.272Z,965.72
2019-01-14T06:41:12.188Z,965.81
2019-01-14T06:42:12.102Z,965.86
2019-01-14T06:43:12.025Z,965.85
2019-01-14T06:44:11.929Z,965.94
2019-01-14T06:45:11.843Z,965.92
2019-01-14T06:46:11.760Z,966.03
2019-01-14T06:47:11.671Z,966.03
2019-01-14T06:48:11.588Z,966.11
2019-01-14T06:49:11.497Z,966.06
2019-01-14T06:50:11.410Z,966.11
2019-01-14T06:51:11.325Z,966.15
2019-01-14T06:52:11.239Z,966.18
2019-01-14T06:53:11.152Z,966.27
2019-01-14T06:54:11.067Z,966.26
2019-01-14T06:55:10.984Z,966.33
2019-01-14T06:56:10.907Z,966.34
2019-01-14T06:57:10.808Z,966.31
2019-01-14T06:58:10.721Z,966.40
2019-01-14T06:59:10.636Z,966.46
2019-01-14T07:00:10.555Z,966.50
2019-01-14T07:01:10.463Z,966.50
2019-01-14T07:02:10.376Z,966.46
2019-01-14T07:03:10.359Z,966.49
2019-01-14T07:04:10.205Z,966.47
2019-01-14T07:05:10.119Z,966.53
2019-01-14T07:06:10.032Z,966.51
2019-01-14T07:07:09.948Z,966.49
2019-01-14T07:08:09.862Z,966.47
2019-01-14T07:09:09.777Z,966.51
2019-01-14T07:10:09.706Z,966.53
2019-01-14T07:11:09.601Z,966.49
2019-01-14T07:12:09.517Z,966.54
2019-01-14T07:13:09.429Z,966.51
2019-01-14T07:14:09.340Z,966.51
2019-01-14T07:15:09.258Z,966.53
2019-01-14T07:16:09.172Z,966.55
2019-01-14T07:17:09.092Z,966.64
2019-01-14T07:18:08.995Z,966.64
2019-01-14T07:19:08.911Z,966.63
2019-01-14T07:20:08.825Z,966.65
2019-01-14T07:21:08.738Z,966.70
2019-01-14T07:22:08.651Z,966.65
2019-01-14T07:23:08.567Z,966.69
2019-01-14T07:24:08.478Z,966.77
2019-01-14T07:25:08.395Z,966.78
2019-01-14T07:26:08.306Z,966.82
2019-01-14T07:27:08.219Z,966.79
2019-01-14T07:28:08.135Z,966.76
2019-01-14T07:29:08.048Z,966.83
2019-01-14T07:30:07.963Z,966.80
2019-01-14T07:31:07.876Z,966.85
2019-01-14T07:32:07.793Z,966.87
2019-01-14T07:33:07.703Z,966.90
2019-01-14T07:34:07.618Z,966.92
2019-01-14T07:35:07.533Z,966.90
2019-01-14T07:36:07.445Z,966.92
2019-01-14T07:37:07.357Z,966.93
2019-01-14T07:38:07.302Z,966.92
2019-01-14T07:39:07.191Z,966.97
2019-01-14T07:40:07.101Z,966.99
2019-01-14T07:41:07.016Z,967.00
2019-01-14T07:42:06.929Z,967.01
2019-01-14T07:43:06.846Z,967.11
2019-01-14T07:44:06.761Z,967.11
2019-01-14T07:45:06.669Z,967.23
2019-01-14T07:46:06.591Z,967.33
2019-01-14T07:47:06.499Z,967.40
2019-01-14T07:48:06.412Z,967.37
2019-01-14T07:49:06.324Z,967.38
2019-01-14T07:50:06.240Z,967.39
2019-01-14T07:51:06.154Z,967.44
2019-01-14T07:52:06.069Z,967.43
2019-01-14T07:53:05.982Z,967.49
2019-01-14T07:54:05.895Z,967.53
2019-01-14T07:55:05.809Z,967.62
2019-01-14T07:56:05.724Z,967.57
2019-01-14T07:57:05.637Z,967.63
2019-01-14T07:58:05.551Z,967.63
2019-01-14T07:59:05.465Z,967.67
2019-01-14T08:00:05.380Z,967.71
2019-01-14T08:01:05.293Z,967.72
2019-01-14T08:02:05.207Z,967.76
2019-01-14T08:03:05.121Z,967.80
2019-01-14T08:04:05.033Z,967.88
2019-01-14T08:05:04.948Z,967.93
2019-01-14T08:06:04.868Z,968.11
2019-01-14T08:07:04.777Z,967.98
2019-01-14T08:08:04.693Z,968.01
2019-01-14T08:09:04.607Z,967.99
2019-01-14T08:10:04.519Z,968.04
2019-01-14T08:11:04.432Z,968.02
2019-01-14T08:12:04.418Z,968.05
2019-01-14T08:13:04.326Z,968.03
2019-01-14T08:14:04.250Z,968.02
2019-01-14T08:15:04.162Z,967.98
2019-01-14T08:16:04.068Z,968.04
2019-01-14T08:17:03.979Z,968.04
2019-01-14T08:18:03.897Z,968.07
2019-01-14T08:19:03.815Z,968.12
2019-01-14T08:20:03.736Z,968.10
2019-01-14T08:21:03.642Z,968.09
2019-01-14T08:22:03.487Z,968.09
2019-01-14T08:23:03.466Z,968.10
2019-01-14T08:24:05.044Z,968.05
2019-01-14T08:25:03.293Z,968.13
2019-01-14T08:26:03.212Z,968.13
2019-01-14T08:27:04.037Z,968.14
2019-01-14T08:28:03.017Z,968.21
2019-01-14T08:29:02.961Z,968.18
2019-01-14T08:30:02.802Z,968.16
2019-01-14T08:31:02.790Z,968.20
2019-01-14T08:32:02.689Z,968.18
2019-01-14T08:33:02.609Z,968.22
2019-01-14T08:34:02.524Z,968.20
2019-01-14T08:35:02.429Z,968.21
2019-01-14T08:36:02.344Z,968.28
2019-01-14T08:37:02.261Z,968.27
2019-01-14T08:38:02.171Z,968.27
2019-01-14T08:39:02.041Z,968.29
2019-01-14T08:40:01.934Z,968.27
2019-01-14T08:41:01.915Z,968.28
2019-01-14T08:42:02.537Z,968.33
2019-01-14T08:43:01.752Z,968.32
2019-01-14T08:44:03.541Z,968.31
2019-01-14T08:45:02.547Z,968.36
2019-01-14T08:46:03.059Z,968.34
2019-01-14T08:47:01.401Z,968.34
2019-01-14T08:48:02.038Z,968.32
2019-01-14T08:49:01.227Z,968.31
2019-01-14T08:50:02.041Z,968.37
2019-01-14T08:51:01.077Z,968.39
2019-01-14T08:52:00.971Z,968.39
2019-01-14T08:53:00.821Z,968.42
2019-01-14T08:54:00.727Z,968.43
2019-01-14T08:55:00.643Z,968.50
2019-01-14T08:56:00.556Z,968.47
2019-01-14T08:57:00.470Z,968.47
2019-01-14T08:58:00.386Z,968.46
2019-01-14T08:59:00.299Z,968.48
2019-01-14T09:00:00.222Z,968.51
2019-01-14T09:01:00.131Z,968.49
2019-01-14T09:02:00.106Z,968.57
2019-01-14T09:03:00.024Z,968.55
2019-01-14T09:03:59.939Z,968.52
2019-01-14T09:04:59.850Z,968.55
2019-01-14T09:05:59.762Z,968.55
2019-01-14T09:06:59.682Z,968.63
2019-01-14T09:08:01.558Z,968.63
2019-01-14T09:08:59.507Z,968.63
2019-01-14T09:09:59.432Z,968.67
2019-01-14T09:10:59.345Z,968.61
2019-01-14T09:12:00.001Z,968.64
2019-01-14T09:12:59.165Z,968.66
2019-01-14T09:13:59.085Z,968.66
2019-01-14T09:14:58.996Z,968.71
2019-01-14T09:15:59.546Z,968.73
2019-01-14T09:16:58.778Z,968.74
2019-01-14T09:18:02.960Z,968.73
2019-01-14T09:18:58.651Z,968.67
2019-01-14T09:19:58.567Z,968.72
2019-01-14T09:20:59.019Z,968.65
2019-01-14T09:21:58.402Z,968.67
2019-01-14T09:22:58.313Z,968.69
2019-01-14T09:23:58.228Z,968.69
2019-01-14T09:24:58.130Z,968.69
2019-01-14T09:25:58.050Z,968.72
2019-01-14T09:26:57.972Z,968.74
2019-01-14T09:27:57.821Z,968.69
2019-01-14T09:28:57.727Z,968.67
2019-01-14T09:29:57.644Z,968.68
2019-01-14T09:30:57.556Z,968.69
2019-01-14T09:31:57.470Z,968.70
2019-01-14T09:33:04.550Z,968.72
2019-01-14T09:35:01.243Z,968.74
2019-01-14T09:36:01.106Z,968.72
2019-01-14T09:38:04.946Z,968.85
2019-01-14T09:39:04.812Z,968.88
2019-01-14T09:41:08.681Z,968.91
2019-01-14T09:42:08.530Z,968.88
2019-01-14T09:44:01.266Z,968.93
2019-01-14T09:45:01.242Z,968.89
2019-01-14T09:46:01.156Z,968.94
2019-01-14T09:47:02.965Z,968.96
2019-01-14T09:48:00.986Z,968.93
2019-01-14T09:49:00.900Z,968.96
2019-01-14T09:50:00.813Z,968.95
2019-01-14T09:51:00.728Z,968.95
2019-01-14T09:52:00.649Z,968.99
2019-01-14T09:53:00.553Z,968.95
2019-01-14T09:54:00.475Z,968.94
2019-01-14T09:55:05.541Z,968.96
2019-01-14T09:56:01.941Z,968.94
2019-01-14T09:57:00.937Z,968.95
2019-01-14T09:58:00.067Z,968.88
2019-01-14T09:58:59.981Z,968.90
2019-01-14T09:59:59.893Z,968.94
2019-01-14T10:00:59.807Z,968.88
2019-01-14T10:01:59.720Z,968.87
2019-01-14T10:02:59.642Z,968.87
2019-01-14T10:03:59.571Z,968.88
2019-01-14T10:04:59.476Z,968.85
2019-01-14T10:05:59.457Z,968.83
2019-01-14T10:06:59.361Z,968.80
2019-01-14T10:08:00.953Z,968.83
2019-01-14T10:08:59.191Z,968.80
2019-01-14T10:09:59.941Z,968.79
2019-01-14T10:10:59.045Z,968.78
2019-01-14T10:11:58.940Z,968.83
2019-01-14T10:12:58.839Z,968.85
2019-01-14T10:13:58.697Z,968.83
2019-01-14T10:14:58.613Z,968.84
2019-01-14T10:15:58.527Z,968.83
2019-01-14T10:16:58.442Z,968.84
2019-01-14T10:17:58.358Z,968.82
2019-01-14T10:18:58.277Z,968.83
2019-01-14T10:19:58.187Z,968.84
2019-01-14T10:20:58.103Z,968.85
2019-01-14T10:21:58.019Z,968.81
2019-01-14T10:22:57.938Z,968.73
2019-01-14T10:23:57.847Z,968.73
2019-01-14T10:24:57.762Z,968.66
2019-01-14T10:25:57.678Z,968.70
2019-01-14T10:26:57.594Z,968.63
2019-01-14T10:27:57.513Z,968.67
2019-01-14T10:28:57.425Z,968.65
2019-01-14T10:29:57.337Z,968.68
2019-01-14T10:30:57.252Z,968.70
2019-01-14T10:31:57.168Z,968.65
2019-01-14T10:32:57.083Z,968.67
2019-01-14T10:33:56.998Z,968.63
2019-01-14T10:34:56.920Z,968.58
2019-01-14T10:35:56.829Z,968.60
2019-01-14T10:36:56.746Z,968.50
2019-01-14T10:37:56.659Z,968.50
2019-01-14T10:38:56.580Z,968.53
2019-01-14T10:39:56.490Z,968.51
2019-01-14T10:40:56.411Z,968.57
2019-01-14T10:41:56.323Z,968.45
2019-01-14T10:42:56.236Z,968.51
2019-01-14T10:43:56.159Z,968.55
2019-01-14T10:44:56.068Z,968.52
2019-01-14T10:45:55.985Z,968.55
2019-01-14T10:46:55.902Z,968.55
2019-01-14T10:47:55.816Z,968.58
2019-01-14T10:48:55.730Z,968.53
2019-01-14T10:49:55.645Z,968.55
2019-01-14T10:50:55.560Z,968.52
2019-01-14T10:51:55.478Z,968.52
2019-01-14T10:52:55.399Z,968.55
2019-01-14T10:53:55.311Z,968.51
2019-01-14T10:54:55.222Z,968.58
2019-01-14T10:55:55.138Z,968.64
2019-01-14T10:56:55.056Z,968.58
2019-01-14T10:57:54.970Z,968.54
2019-01-14T10:58:54.883Z,968.60
2019-01-14T10:59:54.800Z,968.62
2019-01-14T11:00:54.713Z,968.66
2019-01-14T11:01:54.627Z,968.63
2019-01-14T11:02:54.545Z,968.68
2019-01-14T11:03:54.461Z,968.73
2019-01-14T11:04:54.377Z,968.78
2019-01-14T11:05:54.292Z,968.76
2019-01-14T11:06:54.207Z,968.74
2019-01-14T11:07:54.118Z,968.73
2019-01-14T11:08:58.903Z,968.73
2019-01-14T11:09:53.948Z,968.74
2019-01-14T11:10:53.869Z,968.74
2019-01-14T11:11:53.779Z,968.73
2019-01-14T11:12:53.695Z,968.77
2019-01-14T11:13:53.606Z,968.90
2019-01-14T11:14:53.523Z,968.85
2019-01-14T11:15:53.436Z,968.88
2019-01-14T11:16:53.359Z,969.00
2019-01-14T11:17:53.265Z,969.10
2019-01-14T11:18:53.180Z,969.19
2019-01-14T11:19:53.095Z,969.22
2019-01-14T11:20:53.015Z,969.13
2019-01-14T11:21:52.925Z,969.15
2019-01-14T11:22:52.838Z,969.08
2019-01-14T11:23:52.755Z,969.11
2019-01-14T11:24:52.665Z,968.99
2019-01-14T11:25:52.580Z,969.06
2019-01-14T11:26:52.493Z,969.05
2019-01-14T11:27:52.410Z,969.10
2019-01-14T11:28:52.323Z,969.15
2019-01-14T11:29:52.237Z,969.17
2019-01-14T11:30:52.149Z,969.03
2019-01-14T11:31:52.063Z,968.96
2019-01-14T11:32:51.975Z,968.97
2019-01-14T11:33:51.891Z,969.06
2019-01-14T11:34:51.801Z,969.04
2019-01-14T11:35:51.715Z,969.10
2019-01-14T11:36:51.630Z,969.12
2019-01-14T11:37:51.543Z,969.02
2019-01-14T11:38:51.451Z,969.10
2019-01-14T11:39:51.367Z,969.07
2019-01-14T11:40:51.277Z,969.12
2019-01-14T11:41:51.188Z,969.03
2019-01-14T11:42:51.101Z,969.02
2019-01-14T11:43:51.016Z,969.04
2019-01-14T11:44:50.931Z,969.06
2019-01-14T11:45:50.842Z,969.11
2019-01-14T11:46:50.755Z,969.04
2019-01-14T11:47:50.667Z,969.02
2019-01-14T11:48:50.580Z,969.03
2019-01-14T11:49:50.489Z,969.06
2019-01-14T11:50:50.413Z,969.08
2019-01-14T11:51:50.317Z,969.15
2019-01-14T11:52:50.231Z,969.16
2019-01-14T11:53:50.143Z,969.13
2019-01-14T11:54:50.054Z,969.07
2019-01-14T11:55:49.965Z,969.10
2019-01-14T11:56:49.875Z,969.17
2019-01-14T11:57:49.789Z,969.14
2019-01-14T11:58:49.701Z,969.13
2019-01-14T11:59:49.614Z,969.17
2019-01-14T12:00:49.530Z,969.18
2019-01-14T12:01:49.442Z,969.19
2019-01-14T12:02:49.353Z,969.18
2019-01-14T12:03:49.271Z,969.25
2019-01-14T12:04:49.177Z,969.23
2019-01-14T12:05:49.094Z,969.18
2019-01-14T12:06:49.001Z,969.13
2019-01-14T12:07:48.918Z,969.11
2019-01-14T12:08:48.826Z,969.08
2019-01-14T12:09:48.738Z,969.05
2019-01-14T12:10:48.652Z,969.01
2019-01-14T12:11:48.563Z,969.03
2019-01-14T12:12:48.501Z,969.04
2019-01-14T12:13:48.389Z,969.03
2019-01-14T12:14:48.306Z,969.03
2019-01-14T12:15:48.215Z,969.03
2019-01-14T12:16:48.126Z,969.00
2019-01-14T12:17:48.040Z,969.00
2019-01-14T12:18:47.950Z,968.97
2019-01-14T12:19:47.865Z,969.01
2019-01-14T12:20:47.776Z,968.97
2019-01-14T12:21:47.690Z,969.00
2019-01-14T12:22:47.603Z,969.02
2019-01-14T12:23:47.516Z,969.01
2019-01-14T12:24:47.429Z,969.05
2019-01-14T12:25:47.345Z,969.08
2019-01-14T12:26:47.255Z,969.03
2019-01-14T12:27:47.170Z,968.99
2019-01-14T12:28:47.143Z,969.00
2019-01-14T12:29:46.994Z,968.96
2019-01-14T12:30:47.971Z,969.00
2019-01-14T12:31:46.862Z,968.99
2019-01-14T12:32:46.805Z,968.98
2019-01-14T12:33:47.473Z,969.00
2019-01-14T12:34:46.627Z,969.04
2019-01-14T12:35:48.505Z,969.02
2019-01-14T12:36:46.454Z,969.02
2019-01-14T12:37:46.374Z,969.04
2019-01-14T12:38:46.291Z,969.08
2019-01-14T12:39:46.198Z,969.04
2019-01-14T12:40:46.119Z,969.01